Time;durP1;ratioP1;P1;durP2;ratioP2;P2;SDS_P1;SDS_P2;PMS_P1;PMS_P2;Temp;Humidity;BMP_temperature;BMP_pressure;BME280_temperature;BME280_humidity;BME280_pressure;Samples;Min_cycle;Max_cycle;Signal;HPM_P1;HPM_P2
2022/10/17 00:02:04;;;;;;;1.77;1.52;;;;;;;4.04;73.35;97794.84;5034831;28;20196;-62
2022/10/17 00:04:32;;;;;;;2.35;1.90;;;;;;;4.05;72.55;97796.59;5034889;28;20411;-63
2022/10/17 00:06:59;;;;;;;4.18;1.80;;;;;;;4.03;72.45;97788.78;5034667;28;20133;-63
2022/10/17 00:09:26;;;;;;;6.38;1.90;;;;;;;4.02;72.86;97799.13;5034683;28;20534;-63
2022/10/17 00:11:55;;;;;;;2.65;1.83;;;;;;;4.01;72.40;97792.25;5034676;28;20041;-63
2022/10/17 00:14:22;;;;;;;2.13;1.80;;;;;;;3.98;72.87;97794.81;5034666;28;20080;-62
2022/10/17 00:16:49;;;;;;;2.38;2.00;;;;;;;3.91;73.69;97794.75;5034500;28;20489;-63
2022/10/17 00:19:16;;;;;;;2.13;1.90;;;;;;;3.84;74.58;97797.25;5034622;28;20041;-63
2022/10/17 00:21:43;;;;;;;2.40;1.85;;;;;;;3.78;74.41;97791.19;5034365;28;20132;-63
2022/10/17 00:24:10;;;;;;;3.63;2.08;;;;;;;3.79;74.16;97799.78;5034475;28;20046;-63
2022/10/17 00:26:38;;;;;;;2.50;2.00;;;;;;;3.79;74.04;97797.22;5034019;28;20053;-63
2022/10/17 00:29:06;;;;;;;2.35;1.85;;;;;;;3.77;74.15;97793.75;5033893;28;20400;-62
2022/10/17 00:31:34;;;;;;;2.42;2.17;;;;;;;3.74;74.80;97794.59;5034319;28;20127;-63
2022/10/17 00:34:01;;;;;;;1.80;1.70;;;;;;;3.67;75.26;97796.25;5034265;28;20431;-63
2022/10/17 00:36:28;;;;;;;3.10;1.95;;;;;;;3.68;76.10;97797.13;5034155;28;20107;-63
2022/10/17 00:38:57;;;;;;;2.50;1.95;;;;;;;3.69;76.35;97792.81;5034123;28;20050;-63
2022/10/17 00:41:27;;;;;;;2.15;1.95;;;;;;;3.75;77.32;97800.63;5034066;28;20107;-63
2022/10/17 00:43:59;;;;;;;2.45;1.90;;;;;;;3.88;77.99;97796.41;5033828;28;20058;-63
2022/10/17 00:46:30;;;;;;;2.75;2.10;;;;;;;3.99;77.08;97784.44;5033970;28;20042;-63
2022/10/17 00:48:59;;;;;;;;;;;;;;;4.10;76.70;97794.03;5034529;28;20402;-63
2022/10/17 00:51:32;;;;;;;2.10;1.88;;;;;;;4.13;76.27;97797.50;5033830;28;19921;-63
2022/10/17 00:54:01;;;;;;;2.60;1.92;;;;;;;4.17;76.22;97796.69;5033960;28;20089;-63
2022/10/17 00:56:28;;;;;;;2.45;1.80;;;;;;;4.25;76.17;97793.28;5033763;28;20076;-63
2022/10/17 00:58:56;;;;;;;4.00;1.80;;;;;;;4.30;75.92;97800.22;5033812;28;20084;-63
2022/10/17 01:01:23;;;;;;;2.20;1.70;;;;;;;4.30;75.21;97799.34;5033735;28;20054;-63
2022/10/17 01:03:51;;;;;;;2.60;1.63;;;;;;;4.36;75.14;97796.81;5033674;28;20084;-63
2022/10/17 01:06:18;;;;;;;1.65;1.55;;;;;;;4.39;75.26;97795.97;5033782;28;20483;-63
2022/10/17 01:08:46;;;;;;;3.13;1.90;;;;;;;4.43;74.84;97796.00;5033768;28;20046;-63
2022/10/17 01:11:38;;;;;;;2.08;1.83;;;;;;;4.39;75.10;97795.97;5033696;28;20459;-62
2022/10/17 01:14:10;;;;;;;2.53;1.98;;;;;;;4.42;74.60;97798.56;5033555;28;20479;-61
2022/10/17 01:16:47;;;;;;;1.50;1.38;;;;;;;4.37;74.24;97805.47;5033596;28;20122;-63
2022/10/17 01:19:41;;;;;;;2.28;1.75;;;;;;;4.34;73.92;97810.63;5033454;28;20055;-63
2022/10/17 01:22:12;;;;;;;2.83;1.77;;;;;;;4.37;73.59;97806.31;5033487;28;20534;-63
2022/10/17 01:24:52;;;;;;;4.75;2.30;;;;;;;4.34;73.74;97803.72;5033451;28;20045;-63
2022/10/17 01:28:00;;;;;;;2.22;1.92;;;;;;;4.35;73.53;97801.97;5033180;28;20085;-63
2022/10/17 01:30:50;;;;;;;2.33;1.67;;;;;;;4.32;73.11;97799.38;4972593;28;20078;-61
2022/10/17 01:33:28;;;;;;;2.08;1.88;;;;;;;4.23;73.18;97806.22;4972570;28;20449;-62
2022/10/17 01:35:59;;;;;;;4.45;2.30;;;;;;;4.22;73.66;97807.09;5016861;28;20385;-62
2022/10/17 01:38:33;;;;;;;2.25;1.98;;;;;;;4.17;73.48;97801.88;5032981;28;20081;-63
2022/10/17 01:41:05;;;;;;;2.65;1.80;;;;;;;4.18;73.10;97805.31;5033189;28;20053;-62
2022/10/17 01:43:38;;;;;;;2.40;1.80;;;;;;;4.14;73.09;97807.03;5032975;28;20057;-62
2022/10/17 01:46:12;;;;;;;1.92;1.77;;;;;;;4.08;72.96;97812.16;5033141;28;20476;-63
2022/10/17 01:48:44;;;;;;;3.22;2.35;;;;;;;4.00;74.10;97814.66;5033156;28;20470;-63
2022/10/17 01:51:17;;;;;;;3.53;2.20;;;;;;;3.85;75.66;97811.97;5032989;28;20046;-63
2022/10/17 01:53:51;;;;;;;6.30;2.30;;;;;;;3.79;75.56;97810.16;5033149;28;20049;-63
2022/10/17 01:56:20;;;;;;;2.60;1.95;;;;;;;3.82;75.27;97805.00;5033008;28;20077;-63
2022/10/17 01:58:51;;;;;;;3.40;2.20;;;;;;;3.78;75.65;97793.78;5033039;28;20088;-64
2022/10/17 02:01:19;;;;;;;5.93;1.60;;;;;;;3.82;75.73;97798.97;5033007;28;20454;-62
2022/10/17 02:03:51;;;;;;;2.55;2.05;;;;;;;3.81;75.34;97794.63;5033050;28;20049;-62
2022/10/17 02:06:18;;;;;;;2.58;2.00;;;;;;;3.77;76.32;97794.59;5032846;28;20091;-61
2022/10/17 02:08:47;;;;;;;3.20;2.05;;;;;;;3.78;77.36;97798.94;5033038;28;20056;-63
2022/10/17 02:11:17;;;;;;;1.98;1.77;;;;;;;3.78;77.17;97804.13;5033117;28;20450;-63
2022/10/17 02:14:10;;;;;;;2.65;1.75;;;;;;;3.80;77.19;97811.91;5032977;28;20061;-63
2022/10/17 02:16:41;;;;;;;4.20;2.63;;;;;;;3.74;76.69;97810.13;5031179;28;20092;-63
2022/10/17 02:19:32;;;;;;;3.20;2.15;;;;;;;3.74;76.24;97823.09;5032830;28;20487;-63
2022/10/17 02:22:12;;;;;;;1.83;1.73;;;;;;;3.79;76.08;97823.09;5032773;28;20496;-62
2022/10/17 02:24:48;;;;;;;4.35;1.85;;;;;;;3.82;75.46;97830.03;5032739;28;20537;-62
2022/10/17 02:27:21;;;;;;;5.25;2.30;;;;;;;3.78;75.12;97824.84;5032719;28;20057;-63
2022/10/17 02:29:56;;;;;;;2.47;2.20;;;;;;;3.73;74.80;97818.72;5032709;28;20136;-63
2022/10/17 02:32:28;;;;;;;5.05;1.73;;;;;;;3.67;74.51;97816.97;5032801;28;20123;-62
2022/10/17 02:35:01;;;;;;;4.18;1.90;;;;;;;3.58;74.38;97821.19;5032664;28;20050;-62
2022/10/17 02:37:31;;;;;;;2.78;2.20;;;;;;;3.49;74.98;97819.38;5032782;28;20050;-63
2022/10/17 02:40:00;;;;;;;4.53;2.60;;;;;;;3.45;75.11;97821.03;5032384;28;20045;-63
2022/10/17 02:42:29;;;;;;;5.20;1.80;;;;;;;3.44;74.63;97833.97;5032439;28;20415;-63
2022/10/17 02:45:01;;;;;;;3.72;2.35;;;;;;;3.33;74.81;97826.06;5032455;28;20125;-62
2022/10/17 02:47:32;;;;;;;3.13;2.17;;;;;;;3.34;75.16;97835.59;5032457;28;20119;-63
2022/10/17 02:50:01;;;;;;;2.75;2.15;;;;;;;3.24;75.22;97834.59;5032708;28;20446;-63
2022/10/17 02:52:35;;;;;;;2.83;2.13;;;;;;;3.14;75.73;97829.31;5035978;28;20052;-63
2022/10/17 02:55:11;;;;;;;3.42;2.28;;;;;;;3.07;76.54;97835.25;5036202;28;20053;-63
2022/10/17 02:57:41;;;;;;;2.05;1.75;;;;;;;3.00;76.88;97831.72;5036077;28;20041;-63
2022/10/17 03:00:12;;;;;;;3.38;2.25;;;;;;;2.93;77.06;97827.31;5035951;28;20124;-63
2022/10/17 03:02:41;;;;;;;2.53;1.98;;;;;;;2.98;77.00;97833.41;5036015;28;20045;-62
2022/10/17 03:05:11;;;;;;;3.20;2.25;;;;;;;2.96;77.59;97835.13;5035849;28;20191;-63
2022/10/17 03:07:38;;;;;;;2.43;1.87;;;;;;;2.91;77.39;97829.00;5035906;28;20487;-64
2022/10/17 03:10:06;;;;;;;3.58;2.28;;;;;;;2.88;77.69;97840.19;5035811;28;20318;-62
2022/10/17 03:12:33;;;;;;;3.05;2.03;;;;;;;2.90;77.72;97833.34;5035711;28;20534;-63
2022/10/17 03:15:00;;;;;;;2.78;1.75;;;;;;;2.84;77.73;97833.25;5035880;28;20091;-62
2022/10/17 03:17:27;;;;;;;2.08;1.88;;;;;;;2.84;77.74;97828.06;5035696;28;20045;-63
2022/10/17 03:19:54;;;;;;;1.60;1.45;;;;;;;2.80;78.36;97838.34;5035519;28;20053;-63
2022/10/17 03:22:23;;;;;;;3.40;2.28;;;;;;;2.71;78.86;97841.66;5035556;28;20456;-64
2022/10/17 03:24:50;;;;;;;2.58;2.00;;;;;;;2.73;78.82;97840.84;5035639;28;20183;-62
2022/10/17 03:27:17;;;;;;;2.72;2.15;;;;;;;2.72;78.73;97841.69;5035418;28;20049;-64
2022/10/17 03:29:44;;;;;;;2.22;1.90;;;;;;;2.75;78.96;97849.50;5035518;28;20507;-62
2022/10/17 03:32:11;;;;;;;3.15;2.13;;;;;;;2.78;79.25;97846.97;5035464;28;20045;-63
2022/10/17 03:34:38;;;;;;;2.95;2.05;;;;;;;2.88;78.99;97852.22;5035466;28;20060;-63
2022/10/17 03:37:05;;;;;;;3.03;1.90;;;;;;;2.87;79.25;97846.22;5035398;28;20053;-62
2022/10/17 03:39:34;;;;;;;2.40;1.67;;;;;;;2.88;78.65;97852.22;5035370;28;20049;-63
2022/10/17 03:42:01;;;;;;;2.67;1.60;;;;;;;2.96;79.14;97868.75;5035380;28;20119;-63
2022/10/17 03:44:28;;;;;;;2.47;1.90;;;;;;;3.03;79.21;97865.38;5035015;28;20045;-62
2022/10/17 03:46:56;;;;;;;1.80;1.42;;;;;;;3.09;79.23;97867.16;5035101;28;20049;-62
2022/10/17 03:49:23;;;;;;;2.80;1.77;;;;;;;3.12;78.71;97866.34;5035171;28;20053;-63
2022/10/17 03:51:50;;;;;;;5.85;2.05;;;;;;;3.12;77.13;97868.91;5034496;28;20057;-65
2022/10/17 03:54:17;;;;;;;2.90;1.67;;;;;;;3.05;77.33;97872.28;5034927;28;20777;-63
2022/10/17 03:56:46;;;;;;;2.03;1.63;;;;;;;3.07;77.26;97868.00;5034948;28;20495;-63
2022/10/17 03:59:14;;;;;;;2.45;1.90;;;;;;;3.06;77.19;97872.31;5034864;28;20092;-63
2022/10/17 04:01:41;;;;;;;2.90;2.03;;;;;;;2.99;77.49;97879.13;5035097;28;20396;-64
2022/10/17 04:04:09;;;;;;;2.17;1.60;;;;;;;3.00;77.27;97885.13;5034874;28;20055;-63
2022/10/17 04:06:36;;;;;;;3.10;1.98;;;;;;;2.99;77.47;97883.41;5034801;28;20052;-63
2022/10/17 04:09:04;;;;;;;4.07;2.17;;;;;;;2.90;77.69;97886.75;5034622;28;20085;-63
2022/10/17 04:11:31;;;;;;;1.90;1.55;;;;;;;2.85;77.93;97886.66;5034685;28;20503;-64
2022/10/17 04:14:00;;;;;;;2.25;1.85;;;;;;;2.82;78.55;97888.34;5034670;28;20084;-63
2022/10/17 04:16:27;;;;;;;3.97;2.00;;;;;;;2.83;78.82;97892.69;5034690;28;20057;-63
2022/10/17 04:18:55;;;;;;;3.28;2.47;;;;;;;2.87;78.99;97903.09;5034752;28;20103;-62
2022/10/17 04:21:23;;;;;;;2.30;1.77;;;;;;;2.85;78.39;97893.53;5034629;28;20056;-62
2022/10/17 04:23:53;;;;;;;4.55;2.05;;;;;;;2.84;78.50;97904.75;5034403;28;20052;-62
2022/10/17 04:26:21;;;;;;;1.77;1.67;;;;;;;2.79;78.39;97907.25;5034318;28;20046;-62
2022/10/17 04:28:48;;;;;;;3.50;1.63;;;;;;;2.79;78.54;97902.09;5034293;28;20415;-62
2022/10/17 04:31:18;;;;;;;7.15;1.98;;;;;;;2.82;78.64;97912.47;5034477;28;20065;-62
2022/10/17 04:33:47;;;;;;;1.40;1.30;;;;;;;2.83;77.96;97906.44;5034299;28;20045;-64
2022/10/17 04:36:17;;;;;;;3.15;2.20;;;;;;;2.81;77.82;97907.28;5034185;28;20077;-63
2022/10/17 04:38:45;;;;;;;3.65;2.00;;;;;;;2.82;78.12;97903.84;5034151;28;20049;-64
2022/10/17 04:41:14;;;;;;;2.50;2.08;;;;;;;2.92;78.48;97912.63;5034147;28;20065;-63
2022/10/17 04:43:41;;;;;;;2.28;1.50;;;;;;;2.95;77.88;97910.94;5033754;28;20052;-63
2022/10/17 04:46:10;;;;;;;3.80;1.98;;;;;;;3.00;77.60;97916.16;5034054;28;20045;-63
2022/10/17 04:48:40;;;;;;;2.80;1.80;;;;;;;3.04;77.24;97920.53;5034011;28;20057;-63
2022/10/17 04:51:10;;;;;;;2.88;1.40;;;;;;;3.08;77.09;97924.03;5033930;28;20050;-64
2022/10/17 04:53:39;;;;;;;2.42;2.17;;;;;;;3.07;76.71;97928.34;5033785;28;20558;-62
2022/10/17 04:56:10;;;;;;;1.92;1.77;;;;;;;3.01;76.94;97930.84;5033893;28;20057;-64
2022/10/17 04:58:38;;;;;;;4.03;2.17;;;;;;;2.97;77.15;97929.06;5033682;28;20045;-63
2022/10/17 05:01:06;;;;;;;1.90;1.70;;;;;;;2.95;76.73;97934.19;5033808;28;20049;-63
2022/10/17 05:03:35;;;;;;;1.85;1.65;;;;;;;2.95;77.33;97939.38;5033898;28;20053;-64
2022/10/17 05:06:09;;;;;;;2.20;2.00;;;;;;;2.98;77.89;97951.50;5033835;28;20060;-62
2022/10/17 05:08:36;;;;;;;3.95;2.10;;;;;;;2.94;78.24;97953.16;5033644;28;20053;-63
2022/10/17 05:11:15;;;;;;;2.17;2.00;;;;;;;3.02;78.14;97946.41;5033679;28;20052;-61
2022/10/17 05:13:42;;;;;;;3.35;2.10;;;;;;;3.05;77.99;97950.75;5034236;28;20046;-63
2022/10/17 05:16:09;;;;;;;3.20;2.33;;;;;;;3.46;78.43;97956.47;5033668;28;20045;-63
2022/10/17 05:18:36;;;;;;;4.13;2.15;;;;;;;4.80;74.01;97956.13;5033658;28;20511;-63
2022/10/17 05:21:04;;;;;;;3.28;2.00;;;;;;;6.46;68.26;97962.06;5033541;28;20056;-63
2022/10/17 05:23:32;;;;;;;2.25;1.48;;;;;;;8.07;63.67;97962.63;5033383;28;20491;-64
2022/10/17 05:26:00;;;;;;;3.50;1.88;;;;;;;9.79;57.58;97962.97;5033291;28;20053;-64
2022/10/17 05:28:27;;;;;;;1.75;1.52;;;;;;;11.19;53.30;97954.81;5033200;28;20061;-64
2022/10/17 05:30:54;;;;;;;1.95;1.60;;;;;;;12.52;49.31;97960.88;5033362;28;20061;-63
2022/10/17 05:33:22;;;;;;;1.55;1.45;;;;;;;13.60;45.92;97964.34;5033400;28;20060;-63
2022/10/17 05:35:50;;;;;;;1.85;1.40;;;;;;;14.47;44.26;97960.09;5033401;28;20556;-64
2022/10/17 05:38:17;;;;;;;2.20;1.42;;;;;;;15.59;41.87;97972.25;5033358;28;20049;-64
2022/10/17 05:40:45;;;;;;;2.92;1.42;;;;;;;16.74;39.31;97966.25;5033189;28;20045;-64
2022/10/17 05:43:13;;;;;;;1.88;1.60;;;;;;;17.65;37.24;97969.53;5032960;28;20065;-63
2022/10/17 05:45:40;;;;;;;2.40;1.38;;;;;;;18.41;36.44;97967.03;5033171;28;20053;-64
2022/10/17 05:48:09;;;;;;;1.42;1.30;;;;;;;18.95;35.09;97971.50;5033100;28;20049;-63
2022/10/17 05:50:36;;;;;;;2.30;1.38;;;;;;;19.56;34.18;97977.31;5033138;28;20482;-63
2022/10/17 05:53:03;;;;;;;3.13;1.27;;;;;;;20.12;34.03;97970.03;5033235;28;20551;-64
2022/10/17 05:55:31;;;;;;;2.45;1.45;;;;;;;20.59;32.63;97973.66;5033058;28;20053;-63
2022/10/17 05:58:00;;;;;;;1.58;1.30;;;;;;;20.90;32.24;97976.41;5032996;28;20053;-63
2022/10/17 06:00:27;;;;;;;2.90;1.73;;;;;;;21.27;32.07;97976.91;5033055;28;20053;-64
2022/10/17 06:02:54;;;;;;;1.13;1.02;;;;;;;21.84;31.32;97979.78;5032939;28;20084;-63
2022/10/17 06:05:21;;;;;;;2.78;1.05;;;;;;;22.29;30.36;97981.47;5032884;28;20566;-64
2022/10/17 06:07:51;;;;;;;1.20;1.10;;;;;;;22.69;29.39;97978.94;5032863;28;20052;-63
2022/10/17 06:10:19;;;;;;;3.77;1.50;;;;;;;23.58;27.72;97983.81;5032937;28;20049;-63
2022/10/17 06:12:46;;;;;;;1.88;1.30;;;;;;;24.01;26.88;97987.09;5032896;28;20820;-63
2022/10/17 06:15:14;;;;;;;1.33;1.00;;;;;;;24.39;25.58;97989.84;5032849;28;20049;-63
2022/10/17 06:17:42;;;;;;;1.60;1.30;;;;;;;24.75;25.96;97985.47;5032842;28;20054;-63
2022/10/17 06:20:09;;;;;;;2.65;1.45;;;;;;;25.33;25.68;97991.94;5032922;28;20057;-63
2022/10/17 06:22:37;;;;;;;1.83;1.33;;;;;;;25.73;25.78;97988.03;5032805;28;20084;-63
2022/10/17 06:25:04;;;;;;;1.35;1.25;;;;;;;26.27;25.54;97991.00;5032687;28;20456;-63
2022/10/17 06:27:31;;;;;;;1.33;1.00;;;;;;;26.93;24.93;97994.69;5036500;28;20092;-63
2022/10/17 06:29:59;;;;;;;1.40;1.30;;;;;;;27.38;24.10;97996.34;5036593;28;20045;-61
2022/10/17 06:32:28;;;;;;;5.20;1.15;;;;;;;27.64;24.15;98003.19;5036590;28;20048;-61
2022/10/17 06:34:55;;;;;;;6.72;1.48;;;;;;;28.08;22.73;98008.38;5036587;28;20041;-61
2022/10/17 06:37:22;;;;;;;2.30;1.65;;;;;;;28.62;22.64;98008.19;5036595;28;20061;-61
2022/10/17 06:39:49;;;;;;;1.60;1.50;;;;;;;29.14;22.61;98007.16;5036442;28;20128;-61
2022/10/17 06:42:17;;;;;;;1.48;1.38;;;;;;;29.67;21.92;98008.72;5036472;28;20050;-61
2022/10/17 06:44:44;;;;;;;1.63;1.52;;;;;;;29.90;21.47;98017.31;5036367;28;20049;-61
2022/10/17 06:47:12;;;;;;;1.83;1.63;;;;;;;30.18;21.11;98011.13;5036734;28;20132;-61
2022/10/17 06:49:41;;;;;;;2.30;1.40;;;;;;;30.59;21.06;98006.25;5036354;28;20099;-61
2022/10/17 06:52:08;;;;;;;1.85;1.38;;;;;;;30.83;20.72;98015.66;5036191;28;20049;-61
2022/10/17 06:54:35;;;;;;;1.35;1.10;;;;;;;31.06;20.63;98015.19;5036155;28;20052;-61
2022/10/17 06:57:02;;;;;;;2.25;1.40;;;;;;;31.18;20.07;98012.28;5036218;28;20478;-61
2022/10/17 06:59:29;;;;;;;2.83;1.38;;;;;;;31.87;19.98;98014.34;5036076;28;20045;-61
2022/10/17 07:01:56;;;;;;;2.90;1.27;;;;;;;32.20;19.09;98017.28;5036068;28;20085;-61
2022/10/17 07:04:24;;;;;;;2.67;1.60;;;;;;;31.93;18.80;98012.94;5036015;28;20136;-61
2022/10/17 07:06:52;;;;;;;1.50;1.20;;;;;;;31.27;14.92;98009.50;5035952;28;20049;-61
2022/10/17 07:09:19;;;;;;;4.72;1.20;;;;;;;30.31;14.38;98011.63;5035839;28;20042;-61
2022/10/17 07:11:47;;;;;;;1.10;1.00;;;;;;;29.02;15.19;98019.06;5035835;28;20247;-61
2022/10/17 07:14:14;;;;;;;3.10;1.20;;;;;;;28.73;15.87;98019.81;5035900;28;20487;-61
2022/10/17 07:16:41;;;;;;;1.40;1.15;;;;;;;29.15;15.22;98008.00;5035860;28;20052;-61
2022/10/17 07:19:08;;;;;;;0.90;0.90;;;;;;;29.28;14.37;98013.09;5035910;28;20131;-61
2022/10/17 07:21:35;;;;;;;1.13;1.02;;;;;;;28.29;16.16;98020.97;5035743;28;20045;-61
2022/10/17 07:24:05;;;;;;;1.38;1.00;;;;;;;26.29;16.35;98031.09;5035538;28;20053;-60
2022/10/17 07:26:33;;;;;;;1.30;1.20;;;;;;;24.95;17.76;98024.16;5035546;28;20091;-61
2022/10/17 07:29:01;;;;;;;2.67;1.30;;;;;;;23.88;18.58;98027.19;5035377;28;20136;-61
2022/10/17 07:31:28;;;;;;;1.05;0.95;;;;;;;23.39;20.20;98029.56;5035644;28;20064;-61
2022/10/17 07:33:55;;;;;;;2.58;1.38;;;;;;;22.68;21.23;98027.03;5035491;28;20072;-61
2022/10/17 07:36:23;;;;;;;3.33;1.20;;;;;;;22.04;22.32;98025.66;5035055;28;20049;-63
2022/10/17 07:38:50;;;;;;;1.23;1.13;;;;;;;21.76;23.56;98025.50;5035407;28;20052;-64
2022/10/17 07:41:19;;;;;;;0.90;0.88;;;;;;;21.77;23.40;98029.03;5035471;28;20053;-64
2022/10/17 07:43:46;;;;;;;6.90;1.20;;;;;;;21.75;23.78;98025.56;5035177;28;20073;-63
2022/10/17 07:46:14;;;;;;;1.23;0.90;;;;;;;21.66;22.80;98022.53;5035362;28;20541;-62
2022/10/17 07:48:41;;;;;;;1.67;1.27;;;;;;;21.26;24.66;98022.22;5035176;28;20509;-63
2022/10/17 07:51:10;;;;;;;4.63;1.40;;;;;;;20.92;24.76;98017.06;5035507;28;20050;-61
2022/10/17 07:53:38;;;;;;;1.35;1.00;;;;;;;20.51;25.08;98019.28;5036521;28;20049;-63
2022/10/17 07:56:07;;;;;;;1.20;1.10;;;;;;;19.95;27.10;98024.88;5035035;28;20048;-62
2022/10/17 07:58:36;;;;;;;1.30;1.20;;;;;;;19.64;28.36;98024.69;5035164;28;20049;-63
2022/10/17 08:01:05;;;;;;;1.50;1.27;;;;;;;19.85;28.97;98018.34;5035069;28;20056;-62
2022/10/17 08:03:32;;;;;;;2.03;1.20;;;;;;;19.70;28.28;98024.38;5034959;28;20056;-63
2022/10/17 08:06:00;;;;;;;2.42;1.17;;;;;;;19.56;29.64;98022.44;5034805;28;20091;-63
2022/10/17 08:08:27;;;;;;;5.55;1.10;;;;;;;19.61;30.32;98016.03;5034754;28;20049;-63
2022/10/17 08:10:55;;;;;;;1.08;1.00;;;;;;;19.61;29.93;98008.94;5034764;28;20046;-64
2022/10/17 08:13:23;;;;;;;2.00;1.10;;;;;;;19.59;30.98;98020.56;5034727;28;20053;-62
2022/10/17 08:15:52;;;;;;;1.55;1.20;;;;;;;19.47;31.63;98012.28;5034966;28;20053;-63
2022/10/17 08:18:19;;;;;;;2.30;1.40;;;;;;;18.94;31.76;98009.56;5034836;28;20053;-63
2022/10/17 08:20:47;;;;;;;1.90;1.10;;;;;;;18.88;31.82;98013.38;5034456;28;20054;-63
2022/10/17 08:23:14;;;;;;;1.27;1.17;;;;;;;18.56;33.69;98018.41;5034428;28;20056;-63
2022/10/17 08:25:41;;;;;;;1.42;1.20;;;;;;;18.50;33.19;98013.41;5034638;28;20088;-63
2022/10/17 08:28:08;;;;;;;1.23;1.10;;;;;;;18.39;34.71;98019.22;5034361;28;20041;-63
2022/10/17 08:30:35;;;;;;;1.88;1.10;;;;;;;18.46;34.28;98017.13;5034207;28;20049;-63
2022/10/17 08:33:04;;;;;;;1.38;1.10;;;;;;;18.47;33.53;98019.72;5034517;28;20084;-64
2022/10/17 08:35:31;;;;;;;1.20;1.10;;;;;;;18.54;34.23;98017.63;5034249;28;20495;-64
2022/10/17 08:38:00;;;;;;;1.13;1.02;;;;;;;18.63;34.23;98011.91;5034076;28;20136;-62
2022/10/17 08:40:32;;;;;;;1.50;1.20;;;;;;;18.71;34.02;98005.38;5034146;28;20049;-63
2022/10/17 08:43:25;;;;;;;2.50;1.00;;;;;;;19.02;32.92;98010.03;5033875;28;20052;-62
2022/10/17 08:45:54;;;;;;;1.40;1.30;;;;;;;19.26;34.04;98008.94;5034150;28;20483;-63
2022/10/17 08:48:25;;;;;;;2.88;1.30;;;;;;;19.18;33.73;98006.66;5033347;28;20049;-63
2022/10/17 08:50:56;;;;;;;1.52;1.20;;;;;;;19.26;34.11;98011.59;5034073;28;20053;-63
2022/10/17 08:53:27;;;;;;;;;;;;;;;19.45;34.40;98012.34;5034385;28;20081;-63
2022/10/17 08:55:55;;;;;;;2.50;1.27;;;;;;;19.56;32.85;98003.00;5034146;28;19921;-63
2022/10/17 08:58:24;;;;;;;1.42;1.20;;;;;;;19.59;33.21;98002.81;5033939;28;20054;-63
2022/10/17 09:01:02;;;;;;;1.10;1.00;;;;;;;19.95;33.54;98006.28;5033831;28;20071;-63
2022/10/17 09:03:48;;;;;;;1.45;1.35;;;;;;;20.17;32.19;98002.53;5033822;28;20046;-64
2022/10/17 09:06:23;;;;;;;1.30;1.15;;;;;;;19.92;31.59;98006.44;5033726;28;20045;-63
2022/10/17 09:09:05;;;;;;;1.33;1.17;;;;;;;19.60;32.09;98006.34;5033526;28;20107;-62
2022/10/17 09:11:43;;;;;;;1.02;1.00;;;;;;;19.38;32.04;97999.50;5033645;28;20557;-63
2022/10/17 09:14:26;;;;;;;2.00;0.93;;;;;;;19.25;34.53;97997.47;5033551;28;20056;-63
2022/10/17 09:17:06;;;;;;;1.58;1.20;;;;;;;19.60;33.92;97999.25;5033570;28;20463;-63
2022/10/17 09:19:39;;;;;;;1.25;1.10;;;;;;;19.94;33.56;97999.28;5033519;28;20080;-63
2022/10/17 09:22:10;;;;;;;0.95;0.93;;;;;;;19.62;32.75;98000.03;5033453;28;20103;-63
2022/10/17 09:24:42;;;;;;;1.45;1.08;;;;;;;19.45;33.28;97995.59;5033501;28;20492;-63
2022/10/17 09:27:20;;;;;;;2.47;1.25;;;;;;;19.59;34.19;97996.69;5033443;28;20144;-64
2022/10/17 09:29:50;;;;;;;2.08;1.20;;;;;;;19.71;33.65;97998.69;5033345;28;20514;-63
2022/10/17 09:32:22;;;;;;;1.00;0.90;;;;;;;19.92;33.46;97998.47;5033346;28;20491;-63
2022/10/17 09:34:52;;;;;;;1.80;1.23;;;;;;;20.15;33.19;97996.44;5033283;28;20054;-63
2022/10/17 09:37:22;;;;;;;1.10;0.95;;;;;;;20.10;33.16;97994.00;5033303;28;20062;-63
2022/10/17 09:39:49;;;;;;;2.05;1.38;;;;;;;20.24;33.02;97992.41;5033212;28;20076;-63
2022/10/17 09:42:20;;;;;;;1.52;1.05;;;;;;;20.19;32.78;97984.69;5033138;28;20041;-63
2022/10/17 09:44:49;;;;;;;;;;;;;;;20.13;33.35;97985.03;5033317;28;20049;-63
2022/10/17 09:47:26;;;;;;;1.33;1.10;;;;;;;20.19;33.58;97984.69;5033178;28;19967;-63
2022/10/17 09:49:55;;;;;;;3.60;1.10;;;;;;;20.15;33.39;97983.16;5033049;28;20049;-63
2022/10/17 09:52:27;;;;;;;0.85;0.82;;;;;;;19.89;33.27;97980.91;5033097;28;20741;-64
2022/10/17 09:55:00;;;;;;;1.70;1.23;;;;;;;19.91;34.16;97987.03;5033103;28;20128;-63
2022/10/17 09:57:27;;;;;;;1.48;1.20;;;;;;;20.15;34.17;97983.16;5032993;28;20128;-63
2022/10/17 09:59:59;;;;;;;1.55;1.30;;;;;;;20.26;33.09;97967.47;5034159;28;20053;-63
2022/10/17 10:02:29;;;;;;;3.30;1.10;;;;;;;19.95;33.55;97977.06;5037001;28;20045;-63
2022/10/17 10:05:01;;;;;;;2.15;1.23;;;;;;;19.95;33.65;97974.41;5037092;28;20053;-63
2022/10/17 10:07:29;;;;;;;2.63;1.30;;;;;;;19.94;34.04;97976.25;5037005;28;20041;-63
2022/10/17 10:09:58;;;;;;;2.05;1.25;;;;;;;19.83;33.60;97979.47;5036977;28;20409;-63
2022/10/17 10:12:29;;;;;;;1.30;1.20;;;;;;;19.66;34.10;97976.84;5037156;28;20515;-63
2022/10/17 10:14:58;;;;;;;1.30;1.20;;;;;;;19.68;33.72;97967.84;5036747;28;20049;-63
2022/10/17 10:17:29;;;;;;;1.52;1.00;;;;;;;19.60;34.02;97969.19;5036917;28;20060;-63
2022/10/17 10:19:58;;;;;;;1.33;1.23;;;;;;;19.41;34.07;97971.00;5036901;28;20402;-63
2022/10/17 10:22:25;;;;;;;1.73;1.13;;;;;;;19.54;34.25;97970.38;5036834;28;20053;-63
2022/10/17 10:25:08;;;;;;;1.13;1.10;;;;;;;19.55;34.42;97967.66;5036775;28;20502;-63
2022/10/17 10:27:36;;;;;;;1.00;0.88;;;;;;;19.73;34.89;97957.00;5036766;28;20045;-63
2022/10/17 10:30:04;;;;;;;1.35;1.13;;;;;;;19.95;33.78;97969.09;5036714;28;20065;-63
2022/10/17 10:32:34;;;;;;;1.48;1.10;;;;;;;19.82;34.39;97959.16;5036685;28;20091;-63
2022/10/17 10:35:07;;;;;;;0.90;0.90;;;;;;;19.81;34.42;97964.56;5036729;28;20049;-64
2022/10/17 10:37:40;;;;;;;1.05;0.90;;;;;;;19.80;33.92;97957.50;5036648;28;20132;-64
2022/10/17 10:40:16;;;;;;;1.00;1.00;;;;;;;19.68;33.58;97959.88;5036461;28;20557;-63
2022/10/17 10:42:47;;;;;;;1.55;1.10;;;;;;;19.54;34.69;97950.00;5036359;28;20049;-64
2022/10/17 10:45:17;;;;;;;1.10;1.00;;;;;;;19.24;34.45;97952.44;5036249;28;20045;-63
2022/10/17 10:47:52;;;;;;;1.65;1.10;;;;;;;19.01;34.71;97939.41;5036358;28;20521;-63
2022/10/17 10:50:31;;;;;;;1.48;1.30;;;;;;;19.18;35.86;97949.16;5036154;28;20136;-63
2022/10/17 10:53:15;;;;;;;1.77;1.27;;;;;;;19.23;35.77;97950.75;5036257;28;20462;-63
2022/10/17 10:55:47;;;;;;;3.00;1.17;;;;;;;19.28;35.27;97943.41;5036097;28;20526;-63
2022/10/17 10:58:27;;;;;;;3.05;1.38;;;;;;;19.34;36.15;97945.72;5036159;28;20052;-63
2022/10/17 11:00:56;;;;;;;2.30;1.40;;;;;;;19.37;35.06;97947.38;5035913;28;20045;-63
2022/10/17 11:03:30;;;;;;;1.30;1.20;;;;;;;19.38;35.22;97934.03;5036212;28;20045;-63
2022/10/17 11:06:03;;;;;;;1.55;1.40;;;;;;;19.51;35.73;97934.22;5035923;28;20081;-63
2022/10/17 11:08:36;;;;;;;2.45;1.10;;;;;;;19.53;35.39;97934.16;5035850;28;20045;-63
2022/10/17 11:11:26;;;;;;;1.52;1.20;;;;;;;19.66;35.44;97924.59;5035511;28;20046;-63
2022/10/17 11:13:59;;;;;;;1.25;0.90;;;;;;;19.82;35.32;97929.97;5035815;28;20103;-63
2022/10/17 11:16:33;;;;;;;2.65;1.30;;;;;;;20.01;34.29;97930.78;5035854;28;20084;-63
2022/10/17 11:19:16;;;;;;;2.85;1.10;;;;;;;20.10;34.84;97927.63;5035802;28;20061;-63
2022/10/17 11:21:48;;;;;;;2.17;1.35;;;;;;;20.18;34.75;97920.09;5035664;28;20050;-63
2022/10/17 11:24:23;;;;;;;2.65;1.45;;;;;;;20.20;34.11;97912.88;5035638;28;20099;-64
2022/10/17 11:26:56;;;;;;;2.08;1.20;;;;;;;20.23;34.35;97911.88;5035495;28;20053;-63
2022/10/17 11:29:28;;;;;;;6.75;1.42;;;;;;;20.12;35.02;97912.47;5035463;28;20141;-63
2022/10/17 11:31:58;;;;;;;3.03;1.30;;;;;;;19.97;34.18;97914.13;5035541;28;20450;-64
2022/10/17 11:34:27;;;;;;;1.75;1.48;;;;;;;19.95;33.10;97913.34;5035616;28;20050;-63
2022/10/17 11:37:00;;;;;;;1.27;1.10;;;;;;;19.88;33.58;97906.66;5035517;28;20488;-64
2022/10/17 11:39:35;;;;;;;2.47;1.00;;;;;;;19.84;33.81;97911.31;5035352;28;20049;-63
2022/10/17 11:42:06;;;;;;;1.65;1.20;;;;;;;19.73;33.92;97903.03;5035241;28;20095;-63
2022/10/17 11:44:36;;;;;;;1.35;1.25;;;;;;;19.40;34.25;97913.59;5035244;28;20581;-63
2022/10/17 11:47:12;;;;;;;2.72;1.40;;;;;;;19.22;35.22;97914.53;5035275;28;20054;-63
2022/10/17 11:49:42;;;;;;;3.90;1.35;;;;;;;19.26;35.90;97908.16;5035170;28;20148;-63
2022/10/17 11:52:22;;;;;;;1.90;1.27;;;;;;;19.42;36.28;97898.44;5035316;28;20049;-63
2022/10/17 11:54:54;;;;;;;2.92;1.35;;;;;;;19.35;34.79;97906.81;5035136;28;20479;-63